Time;durP1;ratioP1;P1;durP2;ratioP2;P2;SDS_P1;SDS_P2;PMS_P1;PMS_P2;Temp;Humidity;BMP_temperature;BMP_pressure;BME280_temperature;BME280_humidity;BME280_pressure;Samples;Min_cycle;Max_cycle;Signal;HPM_P1;HPM_P2
2021/11/29 00:02:02;;;;;;;9.05;1.88;;;0.40;99.90;;;;;;5017063;28;20064;-66
2021/11/29 00:04:28;;;;;;;5.63;1.83;;;0.40;99.90;;;;;;5023325;28;20312;-68
2021/11/29 00:06:54;;;;;;;7.63;1.85;;;0.40;99.90;;;;;;5024109;28;20480;-66
2021/11/29 00:09:21;;;;;;;12.70;2.60;;;0.30;99.90;;;;;;5031461;28;20245;-58
2021/11/29 00:11:47;;;;;;;6.85;1.80;;;0.40;99.90;;;;;;5031834;28;20441;-58
2021/11/29 00:14:13;;;;;;;5.15;1.80;;;0.40;99.90;;;;;;4990601;28;20045;-59
2021/11/29 00:16:39;;;;;;;7.90;1.67;;;0.40;99.90;;;;;;5015815;28;20049;-58
2021/11/29 00:19:06;;;;;;;7.07;1.60;;;0.40;99.90;;;;;;5034032;28;20567;-66
2021/11/29 00:21:33;;;;;;;7.15;1.55;;;0.40;99.90;;;;;;5021805;28;20084;-58
2021/11/29 00:23:59;;;;;;;7.15;2.03;;;0.50;99.90;;;;;;4994774;28;20057;-66
2021/11/29 00:26:27;;;;;;;7.28;2.35;;;0.50;99.90;;;;;;4980379;28;20477;-66
2021/11/29 00:28:53;;;;;;;9.57;1.95;;;0.60;99.90;;;;;;5027161;28;20049;-58
2021/11/29 00:31:19;;;;;;;4.65;1.65;;;0.60;99.90;;;;;;5028882;28;20489;-59
2021/11/29 00:33:45;;;;;;;7.90;2.25;;;0.60;99.90;;;;;;5012464;28;20424;-58
2021/11/29 00:36:14;;;;;;;6.10;1.83;;;0.60;99.90;;;;;;4996389;28;20103;-59
2021/11/29 00:38:42;;;;;;;7.47;2.13;;;0.70;99.90;;;;;;5012791;28;20409;-58
2021/11/29 00:41:08;;;;;;;9.23;2.17;;;0.80;99.90;;;;;;5031867;28;20072;-59
2021/11/29 00:43:35;;;;;;;6.32;1.60;;;0.90;99.90;;;;;;4981971;28;20061;-66
2021/11/29 00:46:01;;;;;;;5.75;1.85;;;0.80;99.90;;;;;;5013741;28;20049;-58
2021/11/29 00:48:27;;;;;;;9.25;1.92;;;0.80;99.90;;;;;;5024814;28;20511;-67
2021/11/29 00:50:53;;;;;;;6.63;1.80;;;0.80;99.90;;;;;;5031948;28;20385;-66
2021/11/29 00:53:19;;;;;;;10.32;1.75;;;0.70;99.90;;;;;;5016627;28;20117;-58
2021/11/29 00:55:45;;;;;;;8.52;1.85;;;0.80;99.90;;;;;;5012847;28;20108;-59
2021/11/29 00:58:11;;;;;;;5.25;1.85;;;0.70;99.90;;;;;;4998106;28;20063;-66
2021/11/29 01:00:42;;;;;;;7.47;2.13;;;0.80;99.90;;;;;;5032893;28;20057;-67
2021/11/29 01:03:08;;;;;;;8.00;1.90;;;0.90;99.90;;;;;;5032764;28;20125;-66
2021/11/29 01:05:34;;;;;;;5.13;2.00;;;0.90;99.90;;;;;;5033037;28;20378;-66
2021/11/29 01:08:01;;;;;;;7.45;1.92;;;1.00;99.90;;;;;;5013646;28;20045;-66
2021/11/29 01:10:28;;;;;;;7.30;2.40;;;1.00;99.90;;;;;;4982984;28;20401;-65
2021/11/29 01:12:55;;;;;;;7.28;1.45;;;1.20;99.90;;;;;;5013822;28;20037;-65
2021/11/29 01:15:25;;;;;;;8.90;2.03;;;1.30;99.90;;;;;;5027241;28;20519;-66
2021/11/29 01:17:51;;;;;;;7.25;1.65;;;1.20;99.90;;;;;;5030731;28;20140;-59
2021/11/29 01:20:17;;;;;;;8.82;1.88;;;1.20;99.90;;;;;;5031689;28;20049;-59
2021/11/29 01:22:45;;;;;;;4.40;1.52;;;1.30;99.90;;;;;;5028262;28;20049;-59
2021/11/29 01:25:12;;;;;;;9.65;1.63;;;1.20;99.90;;;;;;5001629;28;20492;-59
2021/11/29 01:27:38;;;;;;;4.55;1.42;;;1.20;99.90;;;;;;4993676;28;20056;-58
2021/11/29 01:30:07;;;;;;;11.45;1.65;;;1.20;99.90;;;;;;5029562;28;20053;-59
2021/11/29 01:32:33;;;;;;;3.88;1.73;;;1.20;99.90;;;;;;5013700;28;20052;-65
2021/11/29 01:35:00;;;;;;;3.83;1.48;;;1.20;99.90;;;;;;5015069;28;20084;-67
2021/11/29 01:37:26;;;;;;;6.80;1.85;;;1.20;99.90;;;;;;5031507;28;20148;-59
2021/11/29 01:39:52;;;;;;;7.43;1.70;;;1.20;99.90;;;;;;4993661;28;20060;-59
2021/11/29 01:42:18;;;;;;;9.52;1.85;;;1.30;99.90;;;;;;5007946;28;20045;-58
2021/11/29 01:44:44;;;;;;;10.27;1.70;;;1.30;99.90;;;;;;5031852;28;20050;-66
2021/11/29 01:47:13;;;;;;;5.72;1.83;;;1.30;99.90;;;;;;5004986;28;20151;-65
2021/11/29 01:49:39;;;;;;;5.38;1.50;;;1.30;99.90;;;;;;5012118;28;20046;-59
2021/11/29 01:52:05;;;;;;;6.30;1.63;;;1.30;99.90;;;;;;5013025;28;20492;-65
2021/11/29 01:54:32;;;;;;;8.85;1.50;;;1.30;99.90;;;;;;5014915;28;20090;-59
2021/11/29 01:56:58;;;;;;;5.53;1.48;;;1.30;99.90;;;;;;5000612;28;20050;-59
2021/11/29 01:59:24;;;;;;;6.18;1.63;;;1.30;99.90;;;;;;5010565;28;20145;-65
2021/11/29 02:01:51;;;;;;;6.13;1.50;;;1.30;99.90;;;;;;4996431;28;20049;-59
2021/11/29 02:04:26;;;;;;;8.65;1.65;;;1.20;99.90;;;;;;5013075;28;20184;-65
2021/11/29 02:06:53;;;;;;;5.75;1.65;;;1.20;99.90;;;;;;5030986;28;20057;-59
2021/11/29 02:09:19;;;;;;;6.13;1.33;;;1.30;99.90;;;;;;5015386;28;20053;-67
2021/11/29 02:11:45;;;;;;;6.78;1.33;;;1.30;99.90;;;;;;5036818;28;20048;-67
2021/11/29 02:14:12;;;;;;;6.63;1.50;;;1.40;99.90;;;;;;5042523;28;20049;-59
2021/11/29 02:16:40;;;;;;;5.53;1.38;;;1.40;99.90;;;;;;5011997;28;20374;-65
2021/11/29 02:19:09;;;;;;;8.25;1.25;;;1.50;99.90;;;;;;5015027;28;20041;-66
2021/11/29 02:21:35;;;;;;;4.93;1.20;;;1.50;99.90;;;;;;4982474;28;20131;-65
2021/11/29 02:24:08;;;;;;;5.45;1.30;;;1.70;99.90;;;;;;5014567;28;20576;-65
2021/11/29 02:26:36;;;;;;;9.13;1.80;;;1.80;99.90;;;;;;5017207;28;20037;-59
2021/11/29 02:29:13;;;;;;;5.93;1.25;;;1.80;99.90;;;;;;5016816;28;20223;-59
2021/11/29 02:31:43;;;;;;;6.00;1.00;;;1.80;99.90;;;;;;5011861;28;20052;-65
2021/11/29 02:34:13;;;;;;;4.53;1.73;;;1.80;99.90;;;;;;4996724;28;20055;-65
2021/11/29 02:36:40;;;;;;;2.55;0.90;;;1.90;99.90;;;;;;4992688;28;20077;-58
2021/11/29 02:39:09;;;;;;;3.78;1.27;;;1.90;99.90;;;;;;5011388;28;20053;-59
2021/11/29 02:41:35;;;;;;;4.15;0.98;;;1.80;99.90;;;;;;5028753;28;20045;-65
2021/11/29 02:44:03;;;;;;;3.90;0.60;;;1.80;99.90;;;;;;5012380;28;20087;-66
2021/11/29 02:46:30;;;;;;;4.85;0.80;;;1.80;99.90;;;;;;5028472;28;20049;-65
2021/11/29 02:48:57;;;;;;;3.22;0.85;;;1.80;99.90;;;;;;5012145;28;20291;-65
2021/11/29 02:51:30;;;;;;;2.28;0.63;;;1.80;99.90;;;;;;4994498;28;20068;-59
2021/11/29 02:54:13;;;;;;;5.45;1.02;;;1.80;99.90;;;;;;5031103;28;20045;-59
2021/11/29 02:56:42;;;;;;;4.00;0.80;;;1.80;99.90;;;;;;5009726;28;20057;-59
2021/11/29 02:59:18;;;;;;;3.67;0.80;;;1.80;99.90;;;;;;5013792;28;20164;-59
2021/11/29 03:01:46;;;;;;;5.07;0.80;;;1.80;99.90;;;;;;4982309;28;20447;-64
2021/11/29 03:04:13;;;;;;;4.78;1.10;;;1.80;99.90;;;;;;5014579;28;20048;-59
2021/11/29 03:06:40;;;;;;;2.08;0.70;;;1.80;99.90;;;;;;4997903;28;20041;-59
2021/11/29 03:09:06;;;;;;;3.92;0.90;;;1.80;99.90;;;;;;4995967;28;20050;-65
2021/11/29 03:11:34;;;;;;;3.50;0.70;;;1.80;99.90;;;;;;4998000;28;20704;-60
2021/11/29 03:14:00;;;;;;;2.88;0.93;;;1.70;99.90;;;;;;4983903;28;20447;-60
2021/11/29 03:16:26;;;;;;;6.05;1.30;;;1.70;99.90;;;;;;4963645;28;20185;-66
2021/11/29 03:18:53;;;;;;;2.83;0.90;;;1.70;99.90;;;;;;5037522;28;20049;-65
2021/11/29 03:21:22;;;;;;;4.07;0.98;;;1.70;99.90;;;;;;5020053;28;20110;-60
2021/11/29 03:23:50;;;;;;;5.78;1.13;;;1.70;99.90;;;;;;5029004;28;20484;-65
2021/11/29 03:26:19;;;;;;;7.65;1.33;;;1.70;99.90;;;;;;5017320;28;20544;-64
2021/11/29 03:28:53;;;;;;;7.95;1.75;;;1.70;99.90;;;;;;4996677;28;20050;-65
2021/11/29 03:31:19;;;;;;;3.70;1.02;;;1.70;99.90;;;;;;4998571;28;20049;-64
2021/11/29 03:33:46;;;;;;;5.13;1.10;;;1.80;99.90;;;;;;5002366;28;20150;-60
2021/11/29 03:36:13;;;;;;;5.55;0.95;;;1.80;99.90;;;;;;5020499;28;20045;-65
2021/11/29 03:38:40;;;;;;;6.35;1.17;;;1.80;99.90;;;;;;5015630;28;20164;-65
2021/11/29 03:41:08;;;;;;;4.00;0.93;;;1.90;99.90;;;;;;5016192;28;20060;-60
2021/11/29 03:43:35;;;;;;;6.57;0.90;;;1.90;99.90;;;;;;5031191;28;20045;-60
2021/11/29 03:46:01;;;;;;;4.90;0.93;;;1.90;99.90;;;;;;4997933;28;20053;-60
2021/11/29 03:48:27;;;;;;;2.67;0.70;;;2.00;99.90;;;;;;5032799;28;20046;-65
2021/11/29 03:50:54;;;;;;;4.03;1.00;;;1.90;99.90;;;;;;4981838;28;20049;-59
2021/11/29 03:53:20;;;;;;;3.72;1.13;;;1.90;99.90;;;;;;5035180;28;20090;-60
2021/11/29 03:55:46;;;;;;;8.25;1.10;;;1.90;99.90;;;;;;4995143;28;20062;-60
2021/11/29 03:58:12;;;;;;;4.90;1.20;;;1.90;99.90;;;;;;5003700;28;20400;-65
2021/11/29 04:00:38;;;;;;;4.97;1.15;;;1.90;99.90;;;;;;5014629;28;20057;-60
2021/11/29 04:03:05;;;;;;;4.75;0.90;;;2.00;99.90;;;;;;5009951;28;20064;-60
2021/11/29 04:05:31;;;;;;;6.82;1.42;;;2.00;99.90;;;;;;5002228;28;20401;-60
2021/11/29 04:07:57;;;;;;;5.82;1.33;;;2.00;99.90;;;;;;5031493;28;20135;-60
2021/11/29 04:10:23;;;;;;;3.67;1.00;;;2.00;99.90;;;;;;5013842;28;20061;-60
2021/11/29 04:12:50;;;;;;;4.55;1.05;;;2.00;99.90;;;;;;5031079;28;20063;-60
2021/11/29 04:15:16;;;;;;;6.13;1.25;;;2.00;99.90;;;;;;5014545;28;20554;-66
2021/11/29 04:17:42;;;;;;;4.13;0.93;;;2.10;99.90;;;;;;5012227;28;20164;-60
2021/11/29 04:20:13;;;;;;;9.77;1.90;;;2.20;99.90;;;;;;4993931;28;20505;-66
2021/11/29 04:22:39;;;;;;;3.05;0.95;;;2.20;99.90;;;;;;5022990;28;20076;-60
2021/11/29 04:25:08;;;;;;;5.28;1.00;;;2.20;99.90;;;;;;4997514;28;20146;-66
2021/11/29 04:27:35;;;;;;;7.25;0.75;;;2.30;99.90;;;;;;4999230;28;20088;-67
2021/11/29 04:30:11;;;;;;;6.38;1.67;;;2.30;99.90;;;;;;5030515;28;20460;-61
2021/11/29 04:32:38;;;;;;;3.80;0.82;;;2.30;99.90;;;;;;4997799;28;20049;-66
2021/11/29 04:35:05;;;;;;;5.70;0.77;;;2.30;99.90;;;;;;5016793;28;20041;-66
2021/11/29 04:37:31;;;;;;;2.13;1.10;;;2.40;99.90;;;;;;5015143;28;20386;-66
2021/11/29 04:39:57;;;;;;;3.15;1.02;;;2.40;99.90;;;;;;5024958;28;20397;-67
2021/11/29 04:42:23;;;;;;;3.78;0.80;;;2.40;99.90;;;;;;5014279;28;20135;-61
2021/11/29 04:44:49;;;;;;;8.60;1.55;;;2.50;99.90;;;;;;5009867;28;20052;-66
2021/11/29 04:47:16;;;;;;;4.97;0.93;;;2.50;99.90;;;;;;5030148;28;20467;-61
2021/11/29 04:49:42;;;;;;;8.98;1.73;;;2.50;99.90;;;;;;4997777;28;20053;-61
2021/11/29 04:52:08;;;;;;;7.72;1.05;;;2.50;99.90;;;;;;5031939;28;20052;-66
2021/11/29 04:54:35;;;;;;;4.72;0.65;;;2.40;99.90;;;;;;5033485;28;20111;-66
2021/11/29 04:57:01;;;;;;;6.28;1.10;;;2.40;99.90;;;;;;5008251;28;20050;-62
2021/11/29 04:59:27;;;;;;;1.80;0.80;;;2.40;99.90;;;;;;5030558;28;20092;-66
2021/11/29 05:01:55;;;;;;;7.25;1.50;;;2.40;99.90;;;;;;4997139;28;20057;-62
2021/11/29 05:04:21;;;;;;;5.30;0.98;;;2.40;99.90;;;;;;5016475;28;20049;-66
2021/11/29 05:06:48;;;;;;;3.53;0.98;;;2.40;99.90;;;;;;4995537;28;20053;-65
2021/11/29 05:09:14;;;;;;;4.25;1.30;;;2.40;99.90;;;;;;5013860;28;20085;-66
2021/11/29 05:11:41;;;;;;;3.80;1.00;;;2.50;99.90;;;;;;5001099;28;20045;-61
2021/11/29 05:14:07;;;;;;;5.07;1.00;;;2.40;99.90;;;;;;5030218;28;20053;-61
2021/11/29 05:16:34;;;;;;;2.88;0.85;;;2.30;99.90;;;;;;5030737;28;20587;-66
2021/11/29 05:19:00;;;;;;;6.18;1.10;;;2.30;99.90;;;;;;5037960;28;20124;-61
2021/11/29 05:21:27;;;;;;;6.28;1.30;;;2.30;99.90;;;;;;5005189;28;20049;-61
2021/11/29 05:23:54;;;;;;;6.03;1.08;;;2.20;99.90;;;;;;5012586;28;20155;-62
2021/11/29 05:26:25;;;;;;;4.82;1.02;;;2.20;99.90;;;;;;5030773;28;20045;-60
2021/11/29 05:28:52;;;;;;;3.88;0.90;;;2.20;99.90;;;;;;5013777;28;20068;-60
2021/11/29 05:31:22;;;;;;;5.03;1.30;;;2.10;99.90;;;;;;4995342;28;20057;-59
2021/11/29 05:33:49;;;;;;;6.20;1.33;;;2.10;99.90;;;;;;4979610;28;20423;-59
2021/11/29 05:36:16;;;;;;;3.58;1.08;;;2.00;99.90;;;;;;4996520;28;20073;-59
2021/11/29 05:38:43;;;;;;;3.33;0.80;;;2.00;99.90;;;;;;4996718;28;20049;-60
2021/11/29 05:41:09;;;;;;;2.92;1.10;;;2.00;99.90;;;;;;5031962;28;20041;-60
2021/11/29 05:43:35;;;;;;;3.95;0.98;;;2.00;99.90;;;;;;4979414;28;20053;-61
2021/11/29 05:46:02;;;;;;;4.10;1.20;;;2.00;99.90;;;;;;5029982;28;20580;-60
2021/11/29 05:48:29;;;;;;;3.88;1.30;;;1.90;99.90;;;;;;4994166;28;20041;-60
2021/11/29 05:50:57;;;;;;;4.55;1.30;;;1.90;99.90;;;;;;5012301;28;20045;-61
2021/11/29 05:53:25;;;;;;;1.70;0.90;;;1.90;99.90;;;;;;5001705;28;20065;-60
2021/11/29 05:55:51;;;;;;;3.38;0.95;;;1.90;99.90;;;;;;5033083;28;20048;-60
2021/11/29 05:58:17;;;;;;;4.53;0.90;;;1.90;99.90;;;;;;4991002;28;20058;-66
2021/11/29 06:00:45;;;;;;;2.75;1.13;;;1.90;99.90;;;;;;5012134;28;20057;-65
2021/11/29 06:03:11;;;;;;;2.63;0.90;;;1.80;99.90;;;;;;4996631;28;20419;-65
2021/11/29 06:05:38;;;;;;;2.70;1.17;;;1.80;99.90;;;;;;4998957;28;20055;-60
2021/11/29 06:08:04;;;;;;;2.25;0.80;;;1.80;99.90;;;;;;5010804;28;20551;-60
2021/11/29 06:10:31;;;;;;;2.53;1.00;;;1.80;99.90;;;;;;5030896;28;20103;-60
2021/11/29 06:12:57;;;;;;;2.38;1.10;;;1.80;99.90;;;;;;5011313;28;20045;-60
2021/11/29 06:15:23;;;;;;;4.57;1.20;;;1.70;99.90;;;;;;5016640;28;20057;-60
2021/11/29 06:17:49;;;;;;;5.20;1.10;;;1.70;99.90;;;;;;5032968;28;20557;-60
2021/11/29 06:20:21;;;;;;;3.47;0.93;;;1.70;99.90;;;;;;4995773;28;20057;-60
2021/11/29 06:22:52;;;;;;;4.45;1.40;;;1.60;99.90;;;;;;5029834;28;20041;-59
2021/11/29 06:25:21;;;;;;;4.10;1.23;;;1.60;99.90;;;;;;5041448;28;20107;-66
2021/11/29 06:27:48;;;;;;;4.10;1.52;;;1.50;99.90;;;;;;4986813;28;20049;-60
2021/11/29 06:30:16;;;;;;;2.83;1.27;;;1.50;99.90;;;;;;5029126;28;20128;-60
2021/11/29 06:32:42;;;;;;;3.67;1.42;;;1.40;99.90;;;;;;5029300;28;20046;-60
2021/11/29 06:35:10;;;;;;;3.50;1.50;;;1.40;99.90;;;;;;5011803;28;20043;-60
2021/11/29 06:37:38;;;;;;;6.07;1.73;;;1.30;99.90;;;;;;5012312;28;20111;-65
2021/11/29 06:40:06;;;;;;;4.60;1.63;;;1.30;99.90;;;;;;5006726;28;20492;-60
2021/11/29 06:42:32;;;;;;;3.95;1.38;;;1.30;99.90;;;;;;5019372;28;20044;-60
2021/11/29 06:44:58;;;;;;;6.45;2.03;;;1.20;99.90;;;;;;5039265;28;20050;-64
2021/11/29 06:47:24;;;;;;;4.18;1.73;;;1.20;99.90;;;;;;5028717;28;20053;-65
2021/11/29 06:49:50;;;;;;;5.05;2.22;;;1.20;99.90;;;;;;5034048;28;20515;-65
2021/11/29 06:52:18;;;;;;;6.95;2.28;;;1.30;99.90;;;;;;5049434;28;20055;-60
2021/11/29 06:54:48;;;;;;;5.78;2.33;;;1.30;99.90;;;;;;5032912;28;20087;-65
2021/11/29 06:57:15;;;;;;;5.53;2.60;;;1.20;99.90;;;;;;5033972;28;20471;-65
2021/11/29 06:59:43;;;;;;;7.25;2.50;;;1.20;99.90;;;;;;5017131;28;20087;-60
2021/11/29 07:02:10;;;;;;;4.63;2.40;;;1.20;99.90;;;;;;5012608;28;20080;-65
2021/11/29 07:04:36;;;;;;;4.68;2.72;;;1.20;99.90;;;;;;5031840;28;20580;-64
2021/11/29 07:07:03;;;;;;;10.10;3.13;;;1.10;99.90;;;;;;4981388;28;20049;-64
2021/11/29 07:09:30;;;;;;;8.43;3.17;;;1.00;99.90;;;;;;5031319;28;20501;-64
2021/11/29 07:11:56;;;;;;;12.20;3.45;;;1.00;99.90;;;;;;5012775;28;20052;-65
2021/11/29 07:14:22;;;;;;;7.15;3.55;;;0.90;99.90;;;;;;4996619;28;20555;-61
2021/11/29 07:16:48;;;;;;;7.43;3.30;;;0.90;99.90;;;;;;5030348;28;20053;-61
2021/11/29 07:19:15;;;;;;;7.47;4.35;;;1.00;99.90;;;;;;5028664;28;20042;-60
2021/11/29 07:21:43;;;;;;;6.20;3.75;;;1.00;99.90;;;;;;5027089;28;20102;-60
2021/11/29 07:24:09;;;;;;;9.18;4.60;;;1.00;99.90;;;;;;4993844;28;20440;-64
2021/11/29 07:26:37;;;;;;;10.15;4.65;;;0.90;99.90;;;;;;5011968;28;20107;-64
2021/11/29 07:29:05;;;;;;;11.45;4.65;;;1.00;99.90;;;;;;5022538;28;20083;-64
2021/11/29 07:31:32;;;;;;;7.45;4.38;;;1.00;99.90;;;;;;5012749;28;20045;-65
2021/11/29 07:33:58;;;;;;;10.30;4.70;;;1.00;99.90;;;;;;5005204;28;20462;-61
2021/11/29 07:36:24;;;;;;;9.57;4.22;;;0.90;99.90;;;;;;4994996;28;20045;-60
2021/11/29 07:38:50;;;;;;;11.02;5.25;;;0.90;99.90;;;;;;4998306;28;20057;-66
2021/11/29 07:41:17;;;;;;;7.57;3.75;;;1.00;99.90;;;;;;5013570;28;20045;-66
2021/11/29 07:43:43;;;;;;;8.18;4.20;;;0.90;99.90;;;;;;5006845;28;20089;-64
2021/11/29 07:46:09;;;;;;;10.60;4.45;;;0.90;99.90;;;;;;5011126;28;20050;-65
2021/11/29 07:48:35;;;;;;;8.45;5.10;;;0.90;99.90;;;;;;5001987;28;20054;-64
2021/11/29 07:51:01;;;;;;;9.52;4.78;;;0.90;99.90;;;;;;5034896;28;20081;-64
2021/11/29 07:53:28;;;;;;;7.97;4.57;;;0.90;99.90;;;;;;5016971;28;20061;-64
2021/11/29 07:55:54;;;;;;;9.32;4.47;;;0.80;99.90;;;;;;4994197;28;20048;-64
2021/11/29 07:58:21;;;;;;;9.30;4.63;;;0.80;99.90;;;;;;5034377;28;20443;-64
2021/11/29 08:00:49;;;;;;;9.20;4.60;;;0.80;99.90;;;;;;4999806;28;20051;-60
2021/11/29 08:03:16;;;;;;;9.32;4.55;;;0.90;99.90;;;;;;5032236;28;20050;-60
2021/11/29 08:05:42;;;;;;;7.53;3.67;;;0.90;99.90;;;;;;5014836;28;20401;-64
2021/11/29 08:08:10;;;;;;;10.60;5.63;;;1.10;99.90;;;;;;5030286;28;20048;-59
2021/11/29 08:10:37;;;;;;;11.75;5.50;;;1.40;99.90;;;;;;5014075;28;20050;-60
2021/11/29 08:13:07;;;;;;;9.38;4.72;;;1.60;99.90;;;;;;4992046;28;20099;-60
2021/11/29 08:15:33;;;;;;;7.97;3.72;;;1.70;99.90;;;;;;5007178;28;20405;-60
2021/11/29 08:18:00;;;;;;;8.25;4.43;;;1.80;99.90;;;;;;5034664;28;20069;-63
2021/11/29 08:20:26;;;;;;;5.55;3.50;;;1.80;99.90;;;;;;4998924;28;20052;-60
2021/11/29 08:22:53;;;;;;;9.35;3.72;;;1.90;99.90;;;;;;5031702;28;20041;-60
2021/11/29 08:25:20;;;;;;;6.60;4.25;;;1.90;99.90;;;;;;4978607;28;20172;-60
2021/11/29 08:27:46;;;;;;;6.63;4.20;;;2.00;99.90;;;;;;5031233;28;20136;-60
2021/11/29 08:30:16;;;;;;;9.82;4.35;;;2.00;99.90;;;;;;5014352;28;20049;-65
2021/11/29 08:32:43;;;;;;;7.43;4.55;;;2.10;99.90;;;;;;5015148;28;20515;-65
2021/11/29 08:35:13;;;;;;;9.70;5.40;;;2.10;99.90;;;;;;5014062;28;20052;-66
2021/11/29 08:37:45;;;;;;;7.43;5.60;;;2.40;99.90;;;;;;4996827;28;20347;-59
2021/11/29 08:40:15;;;;;;;10.52;8.25;;;2.60;99.90;;;;;;5013694;28;20525;-60
2021/11/29 08:42:41;;;;;;;10.00;8.05;;;2.70;99.90;;;;;;5013823;28;20057;-59
2021/11/29 08:45:08;;;;;;;14.57;8.35;;;2.70;99.90;;;;;;5032295;28;20060;-67
2021/11/29 08:47:34;;;;;;;13.55;8.32;;;3.00;99.90;;;;;;5021028;28;20052;-59
2021/11/29 08:50:01;;;;;;;8.30;6.63;;;3.00;99.90;;;;;;5039733;28;20476;-60
2021/11/29 08:52:33;;;;;;;8.60;6.13;;;3.00;99.90;;;;;;5012819;28;20034;-65
2021/11/29 08:55:01;;;;;;;8.45;5.63;;;3.00;99.90;;;;;;5038765;28;20107;-66
2021/11/29 08:57:27;;;;;;;7.35;5.72;;;3.00;99.90;;;;;;5030307;28;20175;-66
2021/11/29 08:59:53;;;;;;;6.65;4.65;;;3.00;99.90;;;;;;5013182;28;20045;-63
2021/11/29 09:02:19;;;;;;;6.65;4.13;;;3.10;99.90;;;;;;5014212;28;20120;-66
2021/11/29 09:04:45;;;;;;;7.10;5.10;;;3.10;99.90;;;;;;5007040;28;20143;-60
2021/11/29 09:07:11;;;;;;;8.20;4.72;;;3.00;99.90;;;;;;4996301;28;20050;-67
2021/11/29 09:09:37;;;;;;;5.85;3.85;;;3.10;99.90;;;;;;4997879;28;20524;-67
2021/11/29 09:12:04;;;;;;;8.00;4.15;;;3.10;99.90;;;;;;4998556;28;20053;-67
2021/11/29 09:14:30;;;;;;;6.80;4.40;;;3.20;99.90;;;;;;5031516;28;20068;-67
2021/11/29 09:16:57;;;;;;;7.13;4.20;;;3.20;99.90;;;;;;4981901;28;20091;-66
2021/11/29 09:19:24;;;;;;;9.10;4.80;;;3.30;99.90;;;;;;4996194;28;20049;-60
2021/11/29 09:21:52;;;;;;;6.43;4.00;;;3.20;99.90;;;;;;5030520;28;20088;-59
2021/11/29 09:24:18;;;;;;;7.72;4.75;;;3.30;99.90;;;;;;5011080;28;20041;-59
2021/11/29 09:26:45;;;;;;;7.18;5.05;;;3.50;99.90;;;;;;5008951;28;20052;-66
2021/11/29 09:29:11;;;;;;;7.35;4.30;;;3.80;99.90;;;;;;5010737;28;20098;-59
2021/11/29 09:31:37;;;;;;;6.63;4.18;;;4.10;99.90;;;;;;5012364;28;20071;-59
2021/11/29 09:34:03;;;;;;;6.63;4.85;;;4.50;99.90;;;;;;5016297;28;20044;-60
2021/11/29 09:36:30;;;;;;;7.88;4.90;;;5.00;99.90;;;;;;5012432;28;20060;-60
2021/11/29 09:38:57;;;;;;;7.07;4.70;;;5.40;99.90;;;;;;5015287;28;20048;-66
2021/11/29 09:41:24;;;;;;;6.18;4.30;;;5.80;99.90;;;;;;5010548;28;20050;-60
2021/11/29 09:43:52;;;;;;;6.25;4.00;;;6.10;99.90;;;;;;4996913;28;20067;-59
2021/11/29 09:46:19;;;;;;;5.90;4.07;;;6.20;99.90;;;;;;4996353;28;20504;-59
2021/11/29 09:48:46;;;;;;;11.93;10.93;;;6.50;99.90;;;;;;4996891;28;20420;-73
2021/11/29 09:51:12;;;;;;;13.52;12.23;;;6.40;99.90;;;;;;5030661;28;20124;-60
2021/11/29 09:53:38;;;;;;;9.55;8.55;;;6.40;99.90;;;;;;4997607;28;20050;-60
2021/11/29 09:56:05;;;;;;;6.72;5.10;;;6.50;99.90;;;;;;5027561;28;20408;-68
2021/11/29 09:58:31;;;;;;;5.85;4.30;;;6.30;99.90;;;;;;5013010;28;20060;-68
2021/11/29 10:01:00;;;;;;;6.60;4.20;;;6.10;99.90;;;;;;5013254;28;20087;-68
2021/11/29 10:03:27;;;;;;;7.57;4.85;;;6.10;99.90;;;;;;5013857;28;20049;-70
2021/11/29 10:05:54;;;;;;;7.40;4.65;;;6.20;99.90;;;;;;5029518;28;20060;-59
2021/11/29 10:08:28;;;;;;;8.10;3.85;;;6.30;99.90;;;;;;5013336;28;20038;-66
2021/11/29 10:10:58;;;;;;;6.25;4.10;;;6.60;99.90;;;;;;5030849;28;20042;-66
2021/11/29 10:13:25;;;;;;;6.00;4.45;;;6.80;99.90;;;;;;5011808;28;20075;-58
2021/11/29 10:15:53;;;;;;;8.88;4.93;;;7.00;99.90;;;;;;5013416;28;20068;-59
2021/11/29 10:18:26;;;;;;;8.20;5.15;;;7.40;99.90;;;;;;5011390;28;20107;-59
2021/11/29 10:21:10;;;;;;;7.10;4.90;;;7.70;99.90;;;;;;4994828;28;20058;-58
2021/11/29 10:23:40;;;;;;;6.93;4.45;;;7.80;99.90;;;;;;5012741;28;20534;-66
2021/11/29 10:26:18;;;;;;;30.45;26.20;;;7.90;99.90;;;;;;5020808;28;20056;-60
2021/11/29 10:28:47;;;;;;;7.20;5.00;;;7.90;99.90;;;;;;5009679;28;20088;-60
2021/11/29 10:31:29;;;;;;;8.82;5.20;;;8.10;99.90;;;;;;5005178;28;20353;-60
2021/11/29 10:34:00;;;;;;;6.30;4.65;;;7.90;99.90;;;;;;5010904;28;20093;-67
2021/11/29 10:36:31;;;;;;;6.70;5.07;;;7.70;99.90;;;;;;5026212;28;20045;-69
2021/11/29 10:39:01;;;;;;;6.85;5.35;;;7.40;99.90;;;;;;5029233;28;20126;-67
2021/11/29 10:41:35;;;;;;;9.20;5.40;;;7.20;99.90;;;;;;5029190;28;20053;-68
2021/11/29 10:44:03;;;;;;;8.75;6.40;;;6.80;99.90;;;;;;5012008;28;20049;-59
2021/11/29 10:46:33;;;;;;;7.43;5.43;;;6.90;99.90;;;;;;5028900;28;20053;-68
2021/11/29 10:49:07;;;;;;;7.55;5.63;;;6.70;99.90;;;;;;4995316;28;20058;-68
2021/11/29 10:51:35;;;;;;;7.63;5.25;;;6.70;99.90;;;;;;4995378;28;20045;-66
2021/11/29 10:54:08;;;;;;;8.40;5.30;;;6.60;99.90;;;;;;5006964;28;20492;-66
2021/11/29 10:56:37;;;;;;;6.82;4.93;;;6.70;99.90;;;;;;4996475;28;20069;-67
2021/11/29 10:59:07;;;;;;;8.18;5.38;;;6.60;99.90;;;;;;4991872;28;20639;-68
2021/11/29 11:01:55;;;;;;;8.20;5.90;;;6.50;99.90;;;;;;4991889;28;20525;-68
2021/11/29 11:04:32;;;;;;;7.40;5.68;;;6.30;99.90;;;;;;4992081;28;20068;-59
2021/11/29 11:07:01;;;;;;;7.25;5.15;;;6.00;99.90;;;;;;5018184;28;20129;-67
2021/11/29 11:09:36;;;;;;;7.22;5.93;;;6.00;99.90;;;;;;5013059;28;20049;-67
2021/11/29 11:12:15;;;;;;;8.30;5.88;;;5.90;99.90;;;;;;5007070;28;20080;-58
2021/11/29 11:14:47;;;;;;;7.68;5.95;;;5.80;99.90;;;;;;4994313;28;20124;-59
2021/11/29 11:17:14;;;;;;;9.13;6.07;;;5.70;99.90;;;;;;5028221;28;20052;-57
2021/11/29 11:19:46;;;;;;;8.30;6.15;;;5.70;99.90;;;;;;4980590;28;20092;-66
2021/11/29 11:22:29;;;;;;;7.82;5.97;;;5.60;99.90;;;;;;5017371;28;20075;-57
2021/11/29 11:25:11;;;;;;;8.60;6.25;;;5.60;99.90;;;;;;4979196;28;20049;-57
2021/11/29 11:27:41;;;;;;;10.20;6.20;;;5.60;99.90;;;;;;5003798;28;20076;-58
2021/11/29 11:30:10;;;;;;;9.15;5.75;;;5.60;99.90;;;;;;5032999;28;20055;-58
2021/11/29 11:32:45;;;;;;;7.57;5.68;;;5.60;99.90;;;;;;5014810;28;20056;-67
2021/11/29 11:35:17;;;;;;;7.97;5.78;;;5.60;99.90;;;;;;5013506;28;20045;-64
2021/11/29 11:37:44;;;;;;;;;;;5.60;99.90;;;;;;5032440;28;20108;-67
2021/11/29 11:40:15;;;;;;;10.57;5.10;;;5.60;99.90;;;;;;5014033;28;19917;-58
2021/11/29 11:42:42;;;;;;;9.25;5.47;;;5.70;99.90;;;;;;5029291;28;20065;-59
2021/11/29 11:45:12;;;;;;;10.40;6.40;;;5.60;99.90;;;;;;5031407;28;20103;-60
2021/11/29 11:47:39;;;;;;;8.48;5.50;;;5.60;99.90;;;;;;5014643;28;20049;-67
2021/11/29 11:50:08;;;;;;;8.07;5.82;;;5.60;99.90;;;;;;4998404;28;20119;-66
2021/11/29 11:52:35;;;;;;;8.60;5.70;;;5.60;99.90;;;;;;5009966;28;20049;-67
2021/11/29 11:55:04;;;;;;;9.18;6.25;;;5.70;99.90;;;;;;5013136;28;20056;-65
2021/11/29 11:57:31;;;;;;;9.43;5.88;;;5.70;99.90;;;;;;5013344;28;20049;-66
2021/11/29 12:00:19;;;;;;;7.25;5.15;;;5.70;99.90;;;;;;5015187;28;20085;-65
2021/11/29 12:02:45;;;;;;;9.80;5.57;;;5.70;99.90;;;;;;5019438;28;20077;-66
2021/11/29 12:05:27;;;;;;;8.32;5.55;;;5.80;99.90;;;;;;5033335;28;20049;-58
2021/11/29 12:07:56;;;;;;;8.00;5.55;;;5.90;99.90;;;;;;5022934;28;20101;-59
2021/11/29 12:10:28;;;;;;;7.05;5.50;;;5.90;99.90;;;;;;5006098;28;20053;-66
2021/11/29 12:13:01;;;;;;;;;;;6.00;99.90;;;;;;5015962;28;20049;-66
2021/11/29 12:15:47;;;;;;;6.97;5.55;;;5.90;99.90;;;;;;5032688;28;19991;-58
2021/11/29 12:18:35;;;;;;;6.97;5.45;;;6.00;99.90;;;;;;5027151;28;20045;-59
2021/11/29 12:21:24;;;;;;;7.25;5.50;;;6.10;99.90;;;;;;5003359;28;20060;-66
2021/11/29 12:24:01;;;;;;;8.15;5.63;;;6.30;99.90;;;;;;5014796;28;20492;-65
2021/11/29 12:26:48;;;;;;;7.78;5.25;;;6.40;99.90;;;;;;5003029;28;20046;-58
2021/11/29 12:29:20;;;;;;;7.00;5.13;;;6.50;99.90;;;;;;4992565;28;20428;-66
2021/11/29 12:32:02;;;;;;;7.85;5.03;;;6.60;99.90;;;;;;5010997;28;20462;-66
2021/11/29 12:34:43;;;;;;;6.97;5.00;;;6.50;99.90;;;;;;4997592;28;20049;-67
2021/11/29 12:37:30;;;;;;;9.15;5.15;;;6.40;99.90;;;;;;4998009;28;20057;-58
2021/11/29 12:39:58;;;;;;;7.20;5.80;;;6.30;99.90;;;;;;5030619;28;20045;-58
2021/11/29 12:42:27;;;;;;;7.13;5.07;;;6.30;99.90;;;;;;5031194;28;20038;-58
2021/11/29 12:44:59;;;;;;;7.70;5.50;;;6.30;99.90;;;;;;5013068;28;20496;-58
2021/11/29 12:47:41;;;;;;;7.85;5.20;;;6.40;99.90;;;;;;5013184;28;20041;-58
2021/11/29 12:50:35;;;;;;;6.32;4.90;;;6.30;99.90;;;;;;5011707;28;20060;-58
2021/11/29 12:53:22;;;;;;;8.52;6.03;;;6.40;99.90;;;;;;5021354;28;20052;-66
2021/11/29 12:55:51;;;;;;;7.18;5.70;;;6.30;99.90;;;;;;5012437;28;20845;-66
2021/11/29 12:58:19;;;;;;;7.18;5.13;;;6.30;99.90;;;;;;5013118;28;20054;-66
2021/11/29 13:00:53;;;;;;;7.10;5.68;;;6.20;99.90;;;;;;5031593;28;20061;-67
2021/11/29 13:03:31;;;;;;;7.72;5.22;;;6.20;99.90;;;;;;5013398;28;20115;-66
2021/11/29 13:06:09;;;;;;;9.70;5.43;;;6.20;99.90;;;;;;5030391;28;20057;-66